sensor_id;sensor_type;location;lat;lon;timestamp;P1;durP1;ratioP1;P2;durP2;ratioP2
2872;SDS011;1444;49.166;7.312;2023-11-19T00:01:37;1.90;;;0.90;;
2872;SDS011;1444;49.166;7.312;2023-11-19T00:04:04;1.63;;;1.00;;
2872;SDS011;1444;49.166;7.312;2023-11-19T00:06:31;1.60;;;0.70;;
2872;SDS011;1444;49.166;7.312;2023-11-19T00:09:00;1.80;;;0.87;;
2872;SDS011;1444;49.166;7.312;2023-11-19T00:11:29;3.20;;;0.90;;
2872;SDS011;1444;49.166;7.312;2023-11-19T00:13:56;1.70;;;0.70;;
2872;SDS011;1444;49.166;7.312;2023-11-19T00:16:23;1.70;;;1.00;;
2872;SDS011;1444;49.166;7.312;2023-11-19T00:18:52;2.30;;;1.30;;
2872;SDS011;1444;49.166;7.312;2023-11-19T00:21:20;9.23;;;1.30;;
2872;SDS011;1444;49.166;7.312;2023-11-19T00:23:48;1.63;;;0.90;;
2872;SDS011;1444;49.166;7.312;2023-11-19T00:26:16;10.43;;;1.60;;
2872;SDS011;1444;49.166;7.312;2023-11-19T00:28:43;1.80;;;0.87;;
2872;SDS011;1444;49.166;7.312;2023-11-19T00:31:13;2.90;;;0.80;;
2872;SDS011;1444;49.166;7.312;2023-11-19T00:33:40;1.90;;;1.00;;
2872;SDS011;1444;49.166;7.312;2023-11-19T00:36:08;9.33;;;1.57;;
2872;SDS011;1444;49.166;7.312;2023-11-19T00:38:36;1.60;;;0.80;;
2872;SDS011;1444;49.166;7.312;2023-11-19T00:41:04;4.33;;;1.20;;
2872;SDS011;1444;49.166;7.312;2023-11-19T00:43:33;2.00;;;0.70;;
2872;SDS011;1444;49.166;7.312;2023-11-19T00:46:03;1.70;;;1.03;;
2872;SDS011;1444;49.166;7.312;2023-11-19T00:48:33;3.57;;;1.50;;
2872;SDS011;1444;49.166;7.312;2023-11-19T00:51:01;3.13;;;1.33;;
2872;SDS011;1444;49.166;7.312;2023-11-19T00:53:29;17.60;;;1.83;;
2872;SDS011;1444;49.166;7.312;2023-11-19T00:55:59;2.90;;;0.90;;
2872;SDS011;1444;49.166;7.312;2023-11-19T00:58:26;7.43;;;1.10;;
2872;SDS011;1444;49.166;7.312;2023-11-19T01:00:56;13.30;;;1.80;;
2872;SDS011;1444;49.166;7.312;2023-11-19T01:03:25;2.57;;;1.67;;
2872;SDS011;1444;49.166;7.312;2023-11-19T01:05:52;2.67;;;1.20;;
2872;SDS011;1444;49.166;7.312;2023-11-19T01:08:20;9.50;;;1.47;;
2872;SDS011;1444;49.166;7.312;2023-11-19T01:10:49;6.23;;;1.70;;
2872;SDS011;1444;49.166;7.312;2023-11-19T01:13:17;2.03;;;1.43;;
2872;SDS011;1444;49.166;7.312;2023-11-19T01:15:44;1.90;;;1.40;;
2872;SDS011;1444;49.166;7.312;2023-11-19T01:18:14;1.93;;;1.37;;
2872;SDS011;1444;49.166;7.312;2023-11-19T01:20:42;5.30;;;1.37;;
2872;SDS011;1444;49.166;7.312;2023-11-19T01:23:09;2.10;;;1.07;;
2872;SDS011;1444;49.166;7.312;2023-11-19T01:25:37;1.70;;;1.03;;
2872;SDS011;1444;49.166;7.312;2023-11-19T01:28:05;17.83;;;2.20;;
2872;SDS011;1444;49.166;7.312;2023-11-19T01:30:32;7.50;;;1.83;;
2872;SDS011;1444;49.166;7.312;2023-11-19T01:32:59;2.17;;;1.60;;
2872;SDS011;1444;49.166;7.312;2023-11-19T01:35:27;6.80;;;2.00;;
2872;SDS011;1444;49.166;7.312;2023-11-19T01:37:55;2.03;;;1.83;;
2872;SDS011;1444;49.166;7.312;2023-11-19T01:40:22;2.37;;;1.47;;
2872;SDS011;1444;49.166;7.312;2023-11-19T01:42:50;2.20;;;1.30;;
2872;SDS011;1444;49.166;7.312;2023-11-19T01:45:21;2.10;;;1.60;;
2872;SDS011;1444;49.166;7.312;2023-11-19T01:47:53;2.20;;;1.80;;
2872;SDS011;1444;49.166;7.312;2023-11-19T01:50:20;3.67;;;3.30;;
2872;SDS011;1444;49.166;7.312;2023-11-19T01:52:51;1.87;;;1.50;;
2872;SDS011;1444;49.166;7.312;2023-11-19T01:55:20;20.80;;;3.23;;
2872;SDS011;1444;49.166;7.312;2023-11-19T01:57:48;3.90;;;2.43;;
2872;SDS011;1444;49.166;7.312;2023-11-19T02:00:16;9.83;;;2.20;;
2872;SDS011;1444;49.166;7.312;2023-11-19T02:02:44;12.50;;;2.40;;
2872;SDS011;1444;49.166;7.312;2023-11-19T02:05:14;3.03;;;2.03;;
2872;SDS011;1444;49.166;7.312;2023-11-19T02:07:41;3.57;;;3.37;;
2872;SDS011;1444;49.166;7.312;2023-11-19T02:10:10;29.77;;;3.80;;
2872;SDS011;1444;49.166;7.312;2023-11-19T02:12:40;3.70;;;2.70;;
2872;SDS011;1444;49.166;7.312;2023-11-19T02:15:09;2.10;;;1.80;;
2872;SDS011;1444;49.166;7.312;2023-11-19T02:17:36;9.63;;;2.03;;
2872;SDS011;1444;49.166;7.312;2023-11-19T02:20:03;3.47;;;3.17;;
2872;SDS011;1444;49.166;7.312;2023-11-19T02:22:34;2.57;;;1.50;;
2872;SDS011;1444;49.166;7.312;2023-11-19T02:25:03;10.73;;;1.80;;
2872;SDS011;1444;49.166;7.312;2023-11-19T02:27:43;2.63;;;1.80;;
2872;SDS011;1444;49.166;7.312;2023-11-19T02:30:15;10.30;;;2.30;;
2872;SDS011;1444;49.166;7.312;2023-11-19T02:32:42;3.30;;;2.70;;
2872;SDS011;1444;49.166;7.312;2023-11-19T02:35:09;5.33;;;4.00;;
2872;SDS011;1444;49.166;7.312;2023-11-19T02:37:37;3.23;;;2.90;;
2872;SDS011;1444;49.166;7.312;2023-11-19T02:40:05;15.23;;;6.63;;
2872;SDS011;1444;49.166;7.312;2023-11-19T02:42:34;3.90;;;3.60;;
2872;SDS011;1444;49.166;7.312;2023-11-19T02:45:02;6.07;;;4.77;;
2872;SDS011;1444;49.166;7.312;2023-11-19T02:47:32;5.57;;;3.77;;
2872;SDS011;1444;49.166;7.312;2023-11-19T02:50:01;8.33;;;5.70;;
2872;SDS011;1444;49.166;7.312;2023-11-19T02:52:29;5.83;;;3.93;;
2872;SDS011;1444;49.166;7.312;2023-11-19T02:55:00;3.57;;;3.27;;
2872;SDS011;1444;49.166;7.312;2023-11-19T02:57:30;22.83;;;6.30;;
2872;SDS011;1444;49.166;7.312;2023-11-19T02:59:57;14.70;;;5.17;;
2872;SDS011;1444;49.166;7.312;2023-11-19T03:02:26;4.33;;;2.77;;
2872;SDS011;1444;49.166;7.312;2023-11-19T03:05:09;3.43;;;2.87;;
2872;SDS011;1444;49.166;7.312;2023-11-19T03:07:36;9.80;;;4.10;;
2872;SDS011;1444;49.166;7.312;2023-11-19T03:10:03;4.30;;;3.63;;
2872;SDS011;1444;49.166;7.312;2023-11-19T03:12:31;3.43;;;2.70;;
2872;SDS011;1444;49.166;7.312;2023-11-19T03:14:59;5.40;;;3.37;;
2872;SDS011;1444;49.166;7.312;2023-11-19T03:17:27;3.77;;;2.83;;
2872;SDS011;1444;49.166;7.312;2023-11-19T03:19:54;4.97;;;3.50;;
2872;SDS011;1444;49.166;7.312;2023-11-19T03:22:22;6.23;;;5.13;;
2872;SDS011;1444;49.166;7.312;2023-11-19T03:24:50;31.40;;;5.70;;
2872;SDS011;1444;49.166;7.312;2023-11-19T03:27:18;4.43;;;3.40;;
2872;SDS011;1444;49.166;7.312;2023-11-19T03:29:45;9.60;;;3.63;;
2872;SDS011;1444;49.166;7.312;2023-11-19T03:32:12;9.40;;;4.57;;
2872;SDS011;1444;49.166;7.312;2023-11-19T03:34:42;5.43;;;2.57;;
2872;SDS011;1444;49.166;7.312;2023-11-19T03:37:09;4.50;;;3.93;;
2872;SDS011;1444;49.166;7.312;2023-11-19T03:39:37;12.00;;;2.87;;
2872;SDS011;1444;49.166;7.312;2023-11-19T03:42:04;3.53;;;3.23;;
2872;SDS011;1444;49.166;7.312;2023-11-19T03:44:31;4.63;;;2.50;;
2872;SDS011;1444;49.166;7.312;2023-11-19T03:46:57;21.53;;;5.23;;
2872;SDS011;1444;49.166;7.312;2023-11-19T03:49:25;9.60;;;5.30;;
2872;SDS011;1444;49.166;7.312;2023-11-19T03:51:54;5.90;;;3.17;;
2872;SDS011;1444;49.166;7.312;2023-11-19T03:54:21;4.47;;;3.73;;
2872;SDS011;1444;49.166;7.312;2023-11-19T03:56:48;3.40;;;2.67;;
2872;SDS011;1444;49.166;7.312;2023-11-19T03:59:15;10.23;;;3.00;;
2872;SDS011;1444;49.166;7.312;2023-11-19T04:01:44;4.17;;;2.83;;
2872;SDS011;1444;49.166;7.312;2023-11-19T04:04:10;5.27;;;3.23;;
2872;SDS011;1444;49.166;7.312;2023-11-19T04:06:37;8.93;;;3.57;;
2872;SDS011;1444;49.166;7.312;2023-11-19T04:09:06;4.47;;;4.00;;
2872;SDS011;1444;49.166;7.312;2023-11-19T04:11:32;4.00;;;3.30;;
2872;SDS011;1444;49.166;7.312;2023-11-19T04:13:59;3.97;;;2.50;;
2872;SDS011;1444;49.166;7.312;2023-11-19T04:16:26;9.90;;;4.10;;
2872;SDS011;1444;49.166;7.312;2023-11-19T04:18:54;3.73;;;3.07;;
2872;SDS011;1444;49.166;7.312;2023-11-19T04:21:21;6.03;;;3.47;;
2872;SDS011;1444;49.166;7.312;2023-11-19T04:23:48;2.97;;;2.67;;
2872;SDS011;1444;49.166;7.312;2023-11-19T04:26:16;3.80;;;3.07;;
2872;SDS011;1444;49.166;7.312;2023-11-19T04:28:43;3.57;;;3.27;;
2872;SDS011;1444;49.166;7.312;2023-11-19T04:31:10;4.33;;;3.90;;
2872;SDS011;1444;49.166;7.312;2023-11-19T04:33:36;8.87;;;3.77;;
2872;SDS011;1444;49.166;7.312;2023-11-19T04:36:04;17.80;;;3.30;;
2872;SDS011;1444;49.166;7.312;2023-11-19T04:38:32;3.13;;;2.83;;
2872;SDS011;1444;49.166;7.312;2023-11-19T04:40:59;8.33;;;3.03;;
2872;SDS011;1444;49.166;7.312;2023-11-19T04:43:28;2.67;;;2.30;;
2872;SDS011;1444;49.166;7.312;2023-11-19T04:45:55;5.10;;;2.37;;
2872;SDS011;1444;49.166;7.312;2023-11-19T04:48:22;7.17;;;2.87;;
2872;SDS011;1444;49.166;7.312;2023-11-19T04:50:49;8.90;;;2.97;;
2872;SDS011;1444;49.166;7.312;2023-11-19T04:53:17;2.50;;;1.80;;
2872;SDS011;1444;49.166;7.312;2023-11-19T04:55:44;10.50;;;2.20;;
2872;SDS011;1444;49.166;7.312;2023-11-19T04:58:11;2.37;;;2.10;;
2872;SDS011;1444;49.166;7.312;2023-11-19T05:00:40;2.03;;;1.43;;
2872;SDS011;1444;49.166;7.312;2023-11-19T05:03:07;2.57;;;1.50;;
2872;SDS011;1444;49.166;7.312;2023-11-19T05:05:34;8.53;;;1.30;;
2872;SDS011;1444;49.166;7.312;2023-11-19T05:08:01;7.80;;;2.27;;
2872;SDS011;1444;49.166;7.312;2023-11-19T05:10:28;2.80;;;1.70;;
2872;SDS011;1444;49.166;7.312;2023-11-19T05:12:55;23.13;;;2.70;;
2872;SDS011;1444;49.166;7.312;2023-11-19T05:15:22;6.70;;;1.50;;
2872;SDS011;1444;49.166;7.312;2023-11-19T05:17:51;1.90;;;1.67;;
2872;SDS011;1444;49.166;7.312;2023-11-19T05:20:17;2.50;;;1.47;;
2872;SDS011;1444;49.166;7.312;2023-11-19T05:22:44;3.93;;;2.80;;
2872;SDS011;1444;49.166;7.312;2023-11-19T05:25:11;6.90;;;2.00;;
2872;SDS011;1444;49.166;7.312;2023-11-19T05:27:38;3.60;;;1.67;;
2872;SDS011;1444;49.166;7.312;2023-11-19T05:30:05;2.20;;;1.67;;
2872;SDS011;1444;49.166;7.312;2023-11-19T05:32:35;2.97;;;1.60;;
2872;SDS011;1444;49.166;7.312;2023-11-19T05:35:04;2.50;;;1.60;;
2872;SDS011;1444;49.166;7.312;2023-11-19T05:37:31;2.00;;;1.27;;
2872;SDS011;1444;49.166;7.312;2023-11-19T05:40:00;1.90;;;1.27;;
2872;SDS011;1444;49.166;7.312;2023-11-19T05:42:28;2.00;;;1.40;;
2872;SDS011;1444;49.166;7.312;2023-11-19T05:44:55;2.17;;;1.83;;
2872;SDS011;1444;49.166;7.312;2023-11-19T05:47:22;3.17;;;1.47;;
2872;SDS011;1444;49.166;7.312;2023-11-19T05:49:49;7.00;;;2.43;;
2872;SDS011;1444;49.166;7.312;2023-11-19T05:52:17;3.50;;;2.47;;
2872;SDS011;1444;49.166;7.312;2023-11-19T05:54:47;1.90;;;1.27;;
2872;SDS011;1444;49.166;7.312;2023-11-19T05:57:16;2.40;;;2.20;;
2872;SDS011;1444;49.166;7.312;2023-11-19T05:59:47;3.20;;;1.70;;
2872;SDS011;1444;49.166;7.312;2023-11-19T06:02:14;3.70;;;2.30;;
2872;SDS011;1444;49.166;7.312;2023-11-19T06:04:41;10.10;;;2.90;;
2872;SDS011;1444;49.166;7.312;2023-11-19T06:07:12;2.70;;;2.20;;
2872;SDS011;1444;49.166;7.312;2023-11-19T06:09:41;2.63;;;2.00;;
2872;SDS011;1444;49.166;7.312;2023-11-19T06:12:08;2.50;;;2.20;;
2872;SDS011;1444;49.166;7.312;2023-11-19T06:14:35;5.70;;;2.83;;
2872;SDS011;1444;49.166;7.312;2023-11-19T06:17:02;22.73;;;3.10;;
2872;SDS011;1444;49.166;7.312;2023-11-19T06:19:29;2.13;;;1.93;;
2872;SDS011;1444;49.166;7.312;2023-11-19T06:21:56;10.67;;;1.83;;
2872;SDS011;1444;49.166;7.312;2023-11-19T06:24:23;7.57;;;1.87;;
2872;SDS011;1444;49.166;7.312;2023-11-19T06:26:52;2.00;;;1.67;;
2872;SDS011;1444;49.166;7.312;2023-11-19T06:29:19;2.70;;;1.33;;
2872;SDS011;1444;49.166;7.312;2023-11-19T06:31:45;10.40;;;2.27;;
2872;SDS011;1444;49.166;7.312;2023-11-19T06:34:13;2.00;;;1.60;;
2872;SDS011;1444;49.166;7.312;2023-11-19T06:36:40;2.10;;;1.70;;
2872;SDS011;1444;49.166;7.312;2023-11-19T06:39:08;12.00;;;2.73;;
2872;SDS011;1444;49.166;7.312;2023-11-19T06:41:35;5.00;;;2.00;;
2872;SDS011;1444;49.166;7.312;2023-11-19T06:44:05;5.50;;;1.73;;
2872;SDS011;1444;49.166;7.312;2023-11-19T06:46:32;5.37;;;3.00;;
2872;SDS011;1444;49.166;7.312;2023-11-19T06:48:59;4.43;;;3.07;;
2872;SDS011;1444;49.166;7.312;2023-11-19T06:51:26;40.63;;;4.30;;
2872;SDS011;1444;49.166;7.312;2023-11-19T06:53:53;2.20;;;1.93;;
2872;SDS011;1444;49.166;7.312;2023-11-19T06:56:20;6.20;;;1.60;;
2872;SDS011;1444;49.166;7.312;2023-11-19T06:58:48;9.73;;;2.63;;
2872;SDS011;1444;49.166;7.312;2023-11-19T07:01:17;8.33;;;2.57;;
2872;SDS011;1444;49.166;7.312;2023-11-19T07:03:44;3.27;;;2.97;;
2872;SDS011;1444;49.166;7.312;2023-11-19T07:06:11;14.23;;;3.60;;
2872;SDS011;1444;49.166;7.312;2023-11-19T07:08:38;2.63;;;2.43;;
2872;SDS011;1444;49.166;7.312;2023-11-19T07:11:07;6.53;;;3.63;;
2872;SDS011;1444;49.166;7.312;2023-11-19T07:13:35;10.90;;;2.93;;
2872;SDS011;1444;49.166;7.312;2023-11-19T07:16:01;5.40;;;2.80;;
2872;SDS011;1444;49.166;7.312;2023-11-19T07:18:30;2.40;;;2.20;;
2872;SDS011;1444;49.166;7.312;2023-11-19T07:21:00;10.00;;;2.83;;
2872;SDS011;1444;49.166;7.312;2023-11-19T07:23:28;2.00;;;1.60;;
2872;SDS011;1444;49.166;7.312;2023-11-19T07:25:54;9.70;;;1.90;;
2872;SDS011;1444;49.166;7.312;2023-11-19T07:28:27;1.90;;;1.53;;
2872;SDS011;1444;49.166;7.312;2023-11-19T07:30:54;6.03;;;2.00;;
2872;SDS011;1444;49.166;7.312;2023-11-19T07:33:22;9.03;;;2.63;;
2872;SDS011;1444;49.166;7.312;2023-11-19T07:35:51;4.87;;;2.07;;
2872;SDS011;1444;49.166;7.312;2023-11-19T07:38:18;7.23;;;2.40;;
2872;SDS011;1444;49.166;7.312;2023-11-19T07:40:45;6.00;;;2.33;;
2872;SDS011;1444;49.166;7.312;2023-11-19T07:43:12;4.30;;;2.53;;
2872;SDS011;1444;49.166;7.312;2023-11-19T07:45:39;2.20;;;1.60;;
2872;SDS011;1444;49.166;7.312;2023-11-19T07:48:10;28.33;;;3.70;;
2872;SDS011;1444;49.166;7.312;2023-11-19T07:50:38;3.13;;;2.33;;
2872;SDS011;1444;49.166;7.312;2023-11-19T07:53:07;4.47;;;2.13;;
2872;SDS011;1444;49.166;7.312;2023-11-19T07:55:34;6.90;;;2.70;;
2872;SDS011;1444;49.166;7.312;2023-11-19T07:58:00;3.23;;;2.30;;
2872;SDS011;1444;49.166;7.312;2023-11-19T08:00:28;23.93;;;3.77;;
2872;SDS011;1444;49.166;7.312;2023-11-19T08:02:55;2.97;;;2.67;;
2872;SDS011;1444;49.166;7.312;2023-11-19T08:05:22;10.30;;;2.87;;
2872;SDS011;1444;49.166;7.312;2023-11-19T08:07:49;11.37;;;3.03;;
2872;SDS011;1444;49.166;7.312;2023-11-19T08:10:18;5.53;;;2.87;;
2872;SDS011;1444;49.166;7.312;2023-11-19T08:12:45;2.57;;;2.37;;
2872;SDS011;1444;49.166;7.312;2023-11-19T08:15:12;3.50;;;2.60;;
2872;SDS011;1444;49.166;7.312;2023-11-19T08:17:39;4.10;;;3.73;;
2872;SDS011;1444;49.166;7.312;2023-11-19T08:20:06;3.87;;;2.60;;
2872;SDS011;1444;49.166;7.312;2023-11-19T08:22:35;2.43;;;1.90;;
2872;SDS011;1444;49.166;7.312;2023-11-19T08:25:03;3.27;;;2.70;;
2872;SDS011;1444;49.166;7.312;2023-11-19T08:27:32;5.03;;;2.50;;
2872;SDS011;1444;49.166;7.312;2023-11-19T08:29:59;10.70;;;2.20;;
2872;SDS011;1444;49.166;7.312;2023-11-19T08:32:26;1.90;;;1.40;;
2872;SDS011;1444;49.166;7.312;2023-11-19T08:34:53;11.30;;;2.63;;
2872;SDS011;1444;49.166;7.312;2023-11-19T08:37:21;4.80;;;2.00;;
2872;SDS011;1444;49.166;7.312;2023-11-19T08:39:47;1.80;;;1.50;;
2872;SDS011;1444;49.166;7.312;2023-11-19T08:42:15;8.93;;;1.33;;
2872;SDS011;1444;49.166;7.312;2023-11-19T08:44:43;2.00;;;1.50;;
2872;SDS011;1444;49.166;7.312;2023-11-19T08:47:15;8.00;;;2.10;;
2872;SDS011;1444;49.166;7.312;2023-11-19T08:49:43;3.10;;;1.70;;
2872;SDS011;1444;49.166;7.312;2023-11-19T08:52:10;2.90;;;1.97;;
2872;SDS011;1444;49.166;7.312;2023-11-19T08:54:37;2.30;;;1.90;;
2872;SDS011;1444;49.166;7.312;2023-11-19T08:57:04;5.47;;;2.37;;
2872;SDS011;1444;49.166;7.312;2023-11-19T08:59:33;2.27;;;2.07;;
2872;SDS011;1444;49.166;7.312;2023-11-19T09:02:04;9.63;;;2.60;;
2872;SDS011;1444;49.166;7.312;2023-11-19T09:04:34;2.90;;;1.87;;
2872;SDS011;1444;49.166;7.312;2023-11-19T09:07:02;12.40;;;2.30;;
2872;SDS011;1444;49.166;7.312;2023-11-19T09:09:29;11.13;;;2.83;;
2872;SDS011;1444;49.166;7.312;2023-11-19T09:11:56;9.40;;;3.00;;
2872;SDS011;1444;49.166;7.312;2023-11-19T09:14:23;3.23;;;1.53;;
2872;SDS011;1444;49.166;7.312;2023-11-19T09:16:51;6.73;;;2.03;;
2872;SDS011;1444;49.166;7.312;2023-11-19T09:19:19;9.27;;;1.93;;
2872;SDS011;1444;49.166;7.312;2023-11-19T09:21:46;11.23;;;1.67;;
2872;SDS011;1444;49.166;7.312;2023-11-19T09:24:14;15.70;;;3.00;;
2872;SDS011;1444;49.166;7.312;2023-11-19T09:26:41;19.57;;;2.80;;
2872;SDS011;1444;49.166;7.312;2023-11-19T09:29:08;7.50;;;1.70;;
2872;SDS011;1444;49.166;7.312;2023-11-19T09:31:34;6.43;;;1.97;;
2872;SDS011;1444;49.166;7.312;2023-11-19T09:34:04;2.10;;;1.57;;
2872;SDS011;1444;49.166;7.312;2023-11-19T09:36:33;22.70;;;2.70;;
2872;SDS011;1444;49.166;7.312;2023-11-19T09:39:00;2.43;;;2.00;;
2872;SDS011;1444;49.166;7.312;2023-11-19T09:41:27;10.40;;;2.67;;
2872;SDS011;1444;49.166;7.312;2023-11-19T09:43:55;10.00;;;2.33;;
2872;SDS011;1444;49.166;7.312;2023-11-19T09:46:22;3.33;;;2.00;;
2872;SDS011;1444;49.166;7.312;2023-11-19T09:48:50;4.73;;;2.37;;
2872;SDS011;1444;49.166;7.312;2023-11-19T09:51:19;1.77;;;1.30;;
2872;SDS011;1444;49.166;7.312;2023-11-19T09:53:50;4.43;;;1.80;;
2872;SDS011;1444;49.166;7.312;2023-11-19T09:56:17;2.20;;;2.00;;
2872;SDS011;1444;49.166;7.312;2023-11-19T09:58:45;10.10;;;2.47;;
2872;SDS011;1444;49.166;7.312;2023-11-19T10:01:12;12.83;;;2.50;;
2872;SDS011;1444;49.166;7.312;2023-11-19T10:03:39;3.70;;;1.60;;
2872;SDS011;1444;49.166;7.312;2023-11-19T10:06:09;5.47;;;1.80;;
2872;SDS011;1444;49.166;7.312;2023-11-19T10:08:46;2.10;;;1.73;;
2872;SDS011;1444;49.166;7.312;2023-11-19T10:11:14;17.10;;;2.50;;
2872;SDS011;1444;49.166;7.312;2023-11-19T10:13:41;3.33;;;1.50;;
2872;SDS011;1444;49.166;7.312;2023-11-19T10:16:08;4.60;;;1.33;;
2872;SDS011;1444;49.166;7.312;2023-11-19T10:18:36;6.10;;;1.80;;
2872;SDS011;1444;49.166;7.312;2023-11-19T10:21:04;2.93;;;1.93;;
2872;SDS011;1444;49.166;7.312;2023-11-19T10:23:46;3.20;;;1.67;;
2872;SDS011;1444;49.166;7.312;2023-11-19T10:26:16;11.13;;;1.93;;
2872;SDS011;1444;49.166;7.312;2023-11-19T10:28:43;2.30;;;1.50;;
2872;SDS011;1444;49.166;7.312;2023-11-19T10:31:12;2.70;;;1.50;;
2872;SDS011;1444;49.166;7.312;2023-11-19T10:33:39;2.77;;;1.17;;
2872;SDS011;1444;49.166;7.312;2023-11-19T10:36:06;2.37;;;1.20;;
2872;SDS011;1444;49.166;7.312;2023-11-19T10:38:33;18.83;;;2.20;;
2872;SDS011;1444;49.166;7.312;2023-11-19T10:41:00;6.53;;;1.70;;
2872;SDS011;1444;49.166;7.312;2023-11-19T10:43:28;9.43;;;2.00;;
2872;SDS011;1444;49.166;7.312;2023-11-19T10:45:57;11.53;;;2.13;;
2872;SDS011;1444;49.166;7.312;2023-11-19T10:48:35;2.23;;;1.37;;
2872;SDS011;1444;49.166;7.312;2023-11-19T10:51:02;7.13;;;1.87;;
2872;SDS011;1444;49.166;7.312;2023-11-19T10:53:33;2.57;;;1.40;;
2872;SDS011;1444;49.166;7.312;2023-11-19T10:56:05;4.57;;;1.87;;
2872;SDS011;1444;49.166;7.312;2023-11-19T10:58:38;1.90;;;1.10;;
2872;SDS011;1444;49.166;7.312;2023-11-19T11:01:12;4.03;;;1.60;;
2872;SDS011;1444;49.166;7.312;2023-11-19T11:03:40;3.53;;;1.60;;
2872;SDS011;1444;49.166;7.312;2023-11-19T11:06:09;28.90;;;2.60;;
2872;SDS011;1444;49.166;7.312;2023-11-19T11:08:36;6.70;;;2.57;;
2872;SDS011;1444;49.166;7.312;2023-11-19T11:11:05;3.43;;;1.93;;
2872;SDS011;1444;49.166;7.312;2023-11-19T11:13:33;19.50;;;2.87;;
2872;SDS011;1444;49.166;7.312;2023-11-19T11:16:03;4.53;;;1.40;;
2872;SDS011;1444;49.166;7.312;2023-11-19T11:18:32;4.67;;;1.53;;
2872;SDS011;1444;49.166;7.312;2023-11-19T11:21:00;4.77;;;1.70;;
2872;SDS011;1444;49.166;7.312;2023-11-19T11:23:34;2.80;;;1.60;;
2872;SDS011;1444;49.166;7.312;2023-11-19T11:26:18;2.80;;;1.30;;
2872;SDS011;1444;49.166;7.312;2023-11-19T11:28:56;8.83;;;1.80;;
2872;SDS011;1444;49.166;7.312;2023-11-19T11:31:31;2.90;;;1.43;;
2872;SDS011;1444;49.166;7.312;2023-11-19T11:34:08;8.70;;;1.53;;
2872;SDS011;1444;49.166;7.312;2023-11-19T11:36:53;2.70;;;1.57;;
2872;SDS011;1444;49.166;7.312;2023-11-19T11:39:24;3.60;;;1.10;;
2872;SDS011;1444;49.166;7.312;2023-11-19T11:44:58;3.53;;;1.50;;
2872;SDS011;1444;49.166;7.312;2023-11-19T11:47:40;25.63;;;2.90;;
2872;SDS011;1444;49.166;7.312;2023-11-19T11:50:32;2.00;;;1.10;;
2872;SDS011;1444;49.166;7.312;2023-11-19T11:53:15;7.23;;;0.90;;
2872;SDS011;1444;49.166;7.312;2023-11-19T11:55:56;8.90;;;1.27;;
2872;SDS011;1444;49.166;7.312;2023-11-19T11:58:26;3.90;;;1.10;;
2872;SDS011;1444;49.166;7.312;2023-11-19T12:00:57;2.27;;;1.37;;
2872;SDS011;1444;49.166;7.312;2023-11-19T12:03:26;6.17;;;1.43;;
2872;SDS011;1444;49.166;7.312;2023-11-19T12:05:54;4.43;;;1.10;;
2872;SDS011;1444;49.166;7.312;2023-11-19T12:08:24;5.10;;;1.10;;
2872;SDS011;1444;49.166;7.312;2023-11-19T12:10:53;2.67;;;1.10;;
2872;SDS011;1444;49.166;7.312;2023-11-19T12:13:23;4.43;;;1.10;;
2872;SDS011;1444;49.166;7.312;2023-11-19T12:16:08;7.80;;;1.93;;
2872;SDS011;1444;49.166;7.312;2023-11-19T12:18:39;2.93;;;1.33;;
2872;SDS011;1444;49.166;7.312;2023-11-19T12:21:07;3.60;;;1.53;;
2872;SDS011;1444;49.166;7.312;2023-11-19T12:23:35;3.80;;;1.60;;
2872;SDS011;1444;49.166;7.312;2023-11-19T12:26:20;3.47;;;1.40;;
2872;SDS011;1444;49.166;7.312;2023-11-19T12:28:59;10.60;;;1.83;;
2872;SDS011;1444;49.166;7.312;2023-11-19T12:31:28;4.77;;;1.43;;
2872;SDS011;1444;49.166;7.312;2023-11-19T12:33:57;3.77;;;1.60;;
2872;SDS011;1444;49.166;7.312;2023-11-19T12:36:25;6.23;;;1.53;;
2872;SDS011;1444;49.166;7.312;2023-11-19T12:38:52;7.73;;;1.30;;
2872;SDS011;1444;49.166;7.312;2023-11-19T12:41:19;6.67;;;2.20;;
2872;SDS011;1444;49.166;7.312;2023-11-19T12:43:48;10.83;;;1.60;;
2872;SDS011;1444;49.166;7.312;2023-11-19T12:46:19;3.83;;;1.57;;
2872;SDS011;1444;49.166;7.312;2023-11-19T12:48:46;8.63;;;1.53;;
2872;SDS011;1444;49.166;7.312;2023-11-19T12:51:14;2.83;;;1.23;;
2872;SDS011;1444;49.166;7.312;2023-11-19T12:53:48;1.60;;;0.77;;
2872;SDS011;1444;49.166;7.312;2023-11-19T12:56:16;22.00;;;2.07;;
2872;SDS011;1444;49.166;7.312;2023-11-19T12:58:42;4.70;;;1.33;;
2872;SDS011;1444;49.166;7.312;2023-11-19T13:01:10;7.27;;;1.60;;
2872;SDS011;1444;49.166;7.312;2023-11-19T13:03:42;7.90;;;1.87;;
2872;SDS011;1444;49.166;7.312;2023-11-19T13:06:10;3.80;;;1.13;;
2872;SDS011;1444;49.166;7.312;2023-11-19T13:08:39;5.97;;;1.80;;
2872;SDS011;1444;49.166;7.312;2023-11-19T13:11:07;9.60;;;1.37;;
2872;SDS011;1444;49.166;7.312;2023-11-19T13:16:19;4.23;;;1.20;;
2872;SDS011;1444;49.166;7.312;2023-11-19T13:18:47;2.20;;;1.10;;
2872;SDS011;1444;49.166;7.312;2023-11-19T13:21:13;4.60;;;1.13;;
2872;SDS011;1444;49.166;7.312;2023-11-19T13:23:42;10.30;;;1.73;;
2872;SDS011;1444;49.166;7.312;2023-11-19T13:26:08;2.07;;;1.10;;
2872;SDS011;1444;49.166;7.312;2023-11-19T13:28:35;7.57;;;1.73;;
2872;SDS011;1444;49.166;7.312;2023-11-19T13:31:02;22.80;;;2.43;;
2872;SDS011;1444;49.166;7.312;2023-11-19T13:33:29;6.40;;;1.30;;
2872;SDS011;1444;49.166;7.312;2023-11-19T13:35:56;2.20;;;1.10;;
2872;SDS011;1444;49.166;7.312;2023-11-19T13:38:24;5.17;;;1.30;;
2872;SDS011;1444;49.166;7.312;2023-11-19T13:40:53;6.60;;;1.60;;
2872;SDS011;1444;49.166;7.312;2023-11-19T13:43:20;3.20;;;1.17;;
2872;SDS011;1444;49.166;7.312;2023-11-19T13:45:47;6.13;;;1.77;;
2872;SDS011;1444;49.166;7.312;2023-11-19T13:48:14;3.87;;;1.20;;
2872;SDS011;1444;49.166;7.312;2023-11-19T13:50:41;2.30;;;1.00;;
2872;SDS011;1444;49.166;7.312;2023-11-19T13:53:08;3.33;;;1.00;;
2872;SDS011;1444;49.166;7.312;2023-11-19T13:55:35;5.90;;;1.57;;
2872;SDS011;1444;49.166;7.312;2023-11-19T13:58:03;10.23;;;2.03;;
2872;SDS011;1444;49.166;7.312;2023-11-19T14:00:30;2.87;;;1.53;;
2872;SDS011;1444;49.166;7.312;2023-11-19T14:02:57;3.17;;;0.93;;
2872;SDS011;1444;49.166;7.312;2023-11-19T14:05:24;20.47;;;2.60;;
2872;SDS011;1444;49.166;7.312;2023-11-19T14:07:51;17.53;;;1.83;;
2872;SDS011;1444;49.166;7.312;2023-11-19T14:10:21;2.03;;;1.23;;
2872;SDS011;1444;49.166;7.312;2023-11-19T14:12:48;3.40;;;1.20;;
2872;SDS011;1444;49.166;7.312;2023-11-19T14:15:17;8.70;;;2.10;;
2872;SDS011;1444;49.166;7.312;2023-11-19T14:17:45;11.70;;;1.30;;
2872;SDS011;1444;49.166;7.312;2023-11-19T14:20:12;5.97;;;1.30;;
2872;SDS011;1444;49.166;7.312;2023-11-19T14:22:41;2.60;;;1.80;;
2872;SDS011;1444;49.166;7.312;2023-11-19T14:25:09;3.97;;;1.17;;
2872;SDS011;1444;49.166;7.312;2023-11-19T14:27:37;2.33;;;1.10;;
2872;SDS011;1444;49.166;7.312;2023-11-19T14:30:05;2.10;;;1.43;;
2872;SDS011;1444;49.166;7.312;2023-11-19T14:32:38;16.13;;;2.73;;
2872;SDS011;1444;49.166;7.312;2023-11-19T14:35:07;4.47;;;1.50;;
2872;SDS011;1444;49.166;7.312;2023-11-19T14:37:35;7.63;;;1.57;;
2872;SDS011;1444;49.166;7.312;2023-11-19T14:40:03;5.97;;;1.63;;
2872;SDS011;1444;49.166;7.312;2023-11-19T14:42:31;5.27;;;1.70;;
2872;SDS011;1444;49.166;7.312;2023-11-19T14:44:58;8.10;;;1.50;;
2872;SDS011;1444;49.166;7.312;2023-11-19T14:47:26;8.50;;;1.47;;
2872;SDS011;1444;49.166;7.312;2023-11-19T14:49:56;5.43;;;1.50;;
2872;SDS011;1444;49.166;7.312;2023-11-19T14:52:23;7.00;;;1.53;;
2872;SDS011;1444;49.166;7.312;2023-11-19T14:54:51;10.90;;;1.60;;
2872;SDS011;1444;49.166;7.312;2023-11-19T14:57:19;5.40;;;1.57;;
2872;SDS011;1444;49.166;7.312;2023-11-19T14:59:45;8.20;;;1.97;;
2872;SDS011;1444;49.166;7.312;2023-11-19T15:02:12;19.80;;;2.20;;
2872;SDS011;1444;49.166;7.312;2023-11-19T15:04:39;7.40;;;1.57;;
2872;SDS011;1444;49.166;7.312;2023-11-19T15:07:11;25.63;;;2.80;;
2872;SDS011;1444;49.166;7.312;2023-11-19T15:09:38;10.50;;;1.70;;
2872;SDS011;1444;49.166;7.312;2023-11-19T15:12:06;7.23;;;1.70;;
2872;SDS011;1444;49.166;7.312;2023-11-19T15:14:34;13.03;;;1.87;;
2872;SDS011;1444;49.166;7.312;2023-11-19T15:17:02;12.53;;;2.17;;
2872;SDS011;1444;49.166;7.312;2023-11-19T15:19:31;9.47;;;1.90;;
2872;SDS011;1444;49.166;7.312;2023-11-19T15:21:59;6.80;;;1.43;;
2872;SDS011;1444;49.166;7.312;2023-11-19T15:24:32;4.43;;;1.10;;
2872;SDS011;1444;49.166;7.312;2023-11-19T15:27:02;4.40;;;1.40;;